sensor_id;sensor_type;location;lat;lon;timestamp;pressure;altitude;pressure_sealevel;temperature;humidity
45789;BME280;31492;54.856;26.318;2022-12-07T01:14:14;998.3;;;-3.5;100
45789;BME280;31492;54.856;26.318;2022-12-07T01:19:36;996.6;;;-3.6;100
45789;BME280;31492;54.856;26.318;2022-12-07T01:24:22;996.5;;;-3.6;100
45789;BME280;31492;54.856;26.318;2022-12-07T01:29:22;996.5;;;-3.5;100
45789;BME280;31492;54.856;26.318;2022-12-07T01:34:14;996.4;;;-3.5;100
45789;BME280;31492;54.856;26.318;2022-12-07T01:39:24;996.3;;;-3.6;100
45789;BME280;31492;54.856;26.318;2022-12-07T01:44:16;996.3;;;-3.5;100
45789;BME280;31492;54.856;26.318;2022-12-07T01:49:16;996.3;;;-3.6;100
45789;BME280;31492;54.856;26.318;2022-12-07T01:54:14;996.2;;;-3.6;100
45789;BME280;31492;54.856;26.318;2022-12-07T01:59:24;996.1;;;-3.6;100
45789;BME280;31492;54.856;26.318;2022-12-07T02:04:14;996.1;;;-3.7;100
45789;BME280;31492;54.856;26.318;2022-12-07T02:09:14;996.1;;;-3.7;100
45789;BME280;31492;54.856;26.318;2022-12-07T02:14:14;996.1;;;-3.6;100
45789;BME280;31492;54.856;26.318;2022-12-07T02:19:36;996.1;;;-3.7;100
45789;BME280;31492;54.856;26.318;2022-12-07T02:24:27;996;;;-3.7;100
45789;BME280;31492;54.856;26.318;2022-12-07T02:29:25;996;;;-3.7;100
45789;BME280;31492;54.856;26.318;2022-12-07T02:34:28;995.9;;;-3.8;100
45789;BME280;31492;54.856;26.318;2022-12-07T02:39:15;995.9;;;-3.8;100
45789;BME280;31492;54.856;26.318;2022-12-07T02:44:32;995.9;;;-3.8;100
45789;BME280;31492;54.856;26.318;2022-12-07T02:49:26;995.8;;;-3.8;100
45789;BME280;31492;54.856;26.318;2022-12-07T02:54:24;995.8;;;-3.8;100
45789;BME280;31492;54.856;26.318;2022-12-07T02:59:16;995.7;;;-3.8;100
45789;BME280;31492;54.856;26.318;2022-12-07T03:04:18;995.6;;;-3.9;100
45789;BME280;31492;54.856;26.318;2022-12-07T03:09:24;995.6;;;-3.9;100
45789;BME280;31492;54.856;26.318;2022-12-07T03:14:25;995.6;;;-3.9;100
45789;BME280;31492;54.856;26.318;2022-12-07T03:19:26;995.5;;;-4;100
45789;BME280;31492;54.856;26.318;2022-12-07T03:24:34;995.5;;;-4;100
45789;BME280;31492;54.856;26.318;2022-12-07T03:29:17;995.4;;;-4;100
45789;BME280;31492;54.856;26.318;2022-12-07T03:34:15;995.4;;;-4;100
45789;BME280;31492;54.856;26.318;2022-12-07T03:39:25;995.3;;;-4;100
45789;BME280;31492;54.856;26.318;2022-12-07T03:44:14;995.2;;;-3.9;100
45789;BME280;31492;54.856;26.318;2022-12-07T03:49:16;995.2;;;-3.9;100
45789;BME280;31492;54.856;26.318;2022-12-07T03:54:33;995.1;;;-3.9;100
45789;BME280;31492;54.856;26.318;2022-12-07T03:59:26;995;;;-3.9;100
45789;BME280;31492;54.856;26.318;2022-12-07T04:04:14;994.9;;;-4;100
45789;BME280;31492;54.856;26.318;2022-12-07T04:09:14;994.8;;;-4;100
45789;BME280;31492;54.856;26.318;2022-12-07T04:14:24;994.9;;;-4;100
45789;BME280;31492;54.856;26.318;2022-12-07T04:19:25;994.8;;;-4;100
45789;BME280;31492;54.856;26.318;2022-12-07T04:24:14;994.8;;;-4;100
45789;BME280;31492;54.856;26.318;2022-12-07T04:29:22;994.7;;;-4;100
45789;BME280;31492;54.856;26.318;2022-12-07T04:34:14;994.7;;;-4.1;100
45789;BME280;31492;54.856;26.318;2022-12-07T04:39:17;994.6;;;-4;100
45789;BME280;31492;54.856;26.318;2022-12-07T04:44:25;994.6;;;-4;100
45789;BME280;31492;54.856;26.318;2022-12-07T04:49:22;994.5;;;-4;100
45789;BME280;31492;54.856;26.318;2022-12-07T04:54:14;994.5;;;-4;100
45789;BME280;31492;54.856;26.318;2022-12-07T04:59:22;994.4;;;-4;100
45789;BME280;31492;54.856;26.318;2022-12-07T05:04:24;994.4;;;-4.1;100
45789;BME280;31492;54.856;26.318;2022-12-07T05:09:24;994.3;;;-4.1;100
45789;BME280;31492;54.856;26.318;2022-12-07T05:14:22;994.3;;;-4.2;100
45789;BME280;31492;54.856;26.318;2022-12-07T05:19:26;994.2;;;-4.1;100
45789;BME280;31492;54.856;26.318;2022-12-07T05:24:22;994.2;;;-4.2;100
45789;BME280;31492;54.856;26.318;2022-12-07T05:29:15;994.1;;;-4.1;100
45789;BME280;31492;54.856;26.318;2022-12-07T05:34:14;994.1;;;-4.1;100
45789;BME280;31492;54.856;26.318;2022-12-07T05:39:14;994.1;;;-4.2;100
45789;BME280;31492;54.856;26.318;2022-12-07T05:44:14;994.1;;;-4.1;100
45789;BME280;31492;54.856;26.318;2022-12-07T05:49:14;994.1;;;-4.1;100
45789;BME280;31492;54.856;26.318;2022-12-07T05:54:24;994.1;;;-4.1;100
45789;BME280;31492;54.856;26.318;2022-12-07T05:59:24;994;;;-4.1;100
45789;BME280;31492;54.856;26.318;2022-12-07T06:04:14;994;;;-4.1;100
45789;BME280;31492;54.856;26.318;2022-12-07T06:09:14;993.9;;;-4.1;100
45789;BME280;31492;54.856;26.318;2022-12-07T06:14:30;993.8;;;-4.1;100
45789;BME280;31492;54.856;26.318;2022-12-07T06:19:24;993.7;;;-4.1;100
45789;BME280;31492;54.856;26.318;2022-12-07T06:24:35;993.7;;;-4.2;100
45789;BME280;31492;54.856;26.318;2022-12-07T06:29:22;993.7;;;-4.1;100
45789;BME280;31492;54.856;26.318;2022-12-07T06:34:25;993.7;;;-4.1;100
45789;BME280;31492;54.856;26.318;2022-12-07T06:39:14;993.7;;;-4.2;100
45789;BME280;31492;54.856;26.318;2022-12-07T06:44:24;993.7;;;-4.2;100
45789;BME280;31492;54.856;26.318;2022-12-07T06:49:24;993.6;;;-4.1;100
45789;BME280;31492;54.856;26.318;2022-12-07T06:54:15;993.6;;;-4.2;100
45789;BME280;31492;54.856;26.318;2022-12-07T06:59:14;993.6;;;-4.1;100
45789;BME280;31492;54.856;26.318;2022-12-07T07:04:32;993.6;;;-4;100
45789;BME280;31492;54.856;26.318;2022-12-07T07:09:14;993.5;;;-4;100
45789;BME280;31492;54.856;26.318;2022-12-07T07:14:24;993.5;;;-4.1;100
45789;BME280;31492;54.856;26.318;2022-12-07T07:19:22;993.5;;;-4.1;100
45789;BME280;31492;54.856;26.318;2022-12-07T07:24:14;993.5;;;-4.1;100
45789;BME280;31492;54.856;26.318;2022-12-07T07:29:14;993.4;;;-4.1;100
45789;BME280;31492;54.856;26.318;2022-12-07T07:34:48;993.4;;;-4.1;100
45789;BME280;31492;54.856;26.318;2022-12-07T07:39:15;993.4;;;-4.1;100
45789;BME280;31492;54.856;26.318;2022-12-07T07:44:14;993.4;;;-4;100
45789;BME280;31492;54.856;26.318;2022-12-07T07:49:14;993.3;;;-3.9;100
45789;BME280;31492;54.856;26.318;2022-12-07T07:54:14;993.3;;;-4;100
45789;BME280;31492;54.856;26.318;2022-12-07T07:59:14;993.3;;;-4;100
45789;BME280;31492;54.856;26.318;2022-12-07T08:04:24;993.2;;;-3.9;100
45789;BME280;31492;54.856;26.318;2022-12-07T08:09:14;993.2;;;-3.8;100
45789;BME280;31492;54.856;26.318;2022-12-07T08:14:22;993.1;;;-3.9;100
45789;BME280;31492;54.856;26.318;2022-12-07T08:19:24;993.1;;;-3.8;100
45789;BME280;31492;54.856;26.318;2022-12-07T08:24:14;993;;;-3.7;100
45789;BME280;31492;54.856;26.318;2022-12-07T08:29:24;992.9;;;-3.7;100
45789;BME280;31492;54.856;26.318;2022-12-07T08:34:14;992.8;;;-3.7;100
45789;BME280;31492;54.856;26.318;2022-12-07T08:39:14;992.7;;;-3.6;100
45789;BME280;31492;54.856;26.318;2022-12-07T08:44:14;992.6;;;-3.6;100
45789;BME280;31492;54.856;26.318;2022-12-07T08:49:48;992.5;;;-3.5;100
45789;BME280;31492;54.856;26.318;2022-12-07T08:54:15;992.4;;;-3.4;100
45789;BME280;31492;54.856;26.318;2022-12-07T08:59:14;992.4;;;-3.4;100
45789;BME280;31492;54.856;26.318;2022-12-07T09:04:24;992.3;;;-3.4;100
45789;BME280;31492;54.856;26.318;2022-12-07T09:09:23;992.2;;;-3.4;100
45789;BME280;31492;54.856;26.318;2022-12-07T09:14:14;992.2;;;-3.4;100
45789;BME280;31492;54.856;26.318;2022-12-07T09:19:24;992.2;;;-3.4;100
45789;BME280;31492;54.856;26.318;2022-12-07T09:24:32;992.1;;;-3.5;100
45789;BME280;31492;54.856;26.318;2022-12-07T09:29:14;992;;;-3.3;100
45789;BME280;31492;54.856;26.318;2022-12-07T09:34:14;992;;;-3.4;100
45789;BME280;31492;54.856;26.318;2022-12-07T09:39:14;991.9;;;-3.4;100
45789;BME280;31492;54.856;26.318;2022-12-07T09:44:25;991.8;;;-3.4;100
45789;BME280;31492;54.856;26.318;2022-12-07T09:49:16;991.7;;;-3.2;100
45789;BME280;31492;54.856;26.318;2022-12-07T09:54:15;991.7;;;-3;100
45789;BME280;31492;54.856;26.318;2022-12-07T09:59:36;991.5;;;-3.2;100
45789;BME280;31492;54.856;26.318;2022-12-07T10:04:24;991.4;;;-3.2;100
45789;BME280;31492;54.856;26.318;2022-12-07T10:09:15;991.4;;;-3.1;100
45789;BME280;31492;54.856;26.318;2022-12-07T10:14:22;991.3;;;-3.2;100
45789;BME280;31492;54.856;26.318;2022-12-07T10:19:34;991.2;;;-3.2;100
45789;BME280;31492;54.856;26.318;2022-12-07T10:24:24;991.1;;;-3.1;100
45789;BME280;31492;54.856;26.318;2022-12-07T10:29:15;991.1;;;-3.2;100
45789;BME280;31492;54.856;26.318;2022-12-07T10:34:20;991;;;-3.1;100
45789;BME280;31492;54.856;26.318;2022-12-07T10:39:45;991;;;-3.1;100
45789;BME280;31492;54.856;26.318;2022-12-07T10:44:19;990.9;;;-3.2;100
45789;BME280;31492;54.856;26.318;2022-12-07T10:49:21;990.9;;;-3.1;100
45789;BME280;31492;54.856;26.318;2022-12-07T10:54:48;990.9;;;-3.1;100
45789;BME280;31492;54.856;26.318;2022-12-07T10:59:36;990.9;;;-3.1;100
45789;BME280;31492;54.856;26.318;2022-12-07T11:04:17;990.8;;;-3.1;100
45789;BME280;31492;54.856;26.318;2022-12-07T11:09:29;990.8;;;-3.1;100
45789;BME280;31492;54.856;26.318;2022-12-07T11:14:16;990.8;;;-3.1;100
45789;BME280;31492;54.856;26.318;2022-12-07T11:19:28;990.7;;;-3.1;100
45789;BME280;31492;54.856;26.318;2022-12-07T11:24:15;990.6;;;-3.1;100
45789;BME280;31492;54.856;26.318;2022-12-07T11:29:28;990.6;;;-3.1;100
45789;BME280;31492;54.856;26.318;2022-12-07T11:34:26;990.6;;;-3;100
45789;BME280;31492;54.856;26.318;2022-12-07T11:39:37;990.5;;;-3.1;100
45789;BME280;31492;54.856;26.318;2022-12-07T11:44:26;990.4;;;-3.2;100
45789;BME280;31492;54.856;26.318;2022-12-07T11:49:26;990.4;;;-3.1;100
45789;BME280;31492;54.856;26.318;2022-12-07T11:54:15;990.3;;;-3.2;100
45789;BME280;31492;54.856;26.318;2022-12-07T11:59:25;990.2;;;-3.1;100
45789;BME280;31492;54.856;26.318;2022-12-07T12:04:32;990.1;;;-3;100
45789;BME280;31492;54.856;26.318;2022-12-07T12:09:15;990.1;;;-3;100
45789;BME280;31492;54.856;26.318;2022-12-07T12:14:19;990;;;-3.1;100
45789;BME280;31492;54.856;26.318;2022-12-07T12:19:24;989.9;;;-3;100
45789;BME280;31492;54.856;26.318;2022-12-07T12:24:23;989.9;;;-3;100
45789;BME280;31492;54.856;26.318;2022-12-07T12:29:26;989.8;;;-3.1;100
45789;BME280;31492;54.856;26.318;2022-12-07T12:34:31;989.7;;;-3.2;100
45789;BME280;31492;54.856;26.318;2022-12-07T12:39:36;989.6;;;-3.1;100
45789;BME280;31492;54.856;26.318;2022-12-07T12:44:38;989.6;;;-3.2;100
45789;BME280;31492;54.856;26.318;2022-12-07T12:49:36;989.5;;;-3.3;100
45789;BME280;31492;54.856;26.318;2022-12-07T12:54:18;989.5;;;-3.3;100
45789;BME280;31492;54.856;26.318;2022-12-07T12:59:25;989.4;;;-3.2;100
45789;BME280;31492;54.856;26.318;2022-12-07T13:04:27;989.3;;;-3.2;100
45789;BME280;31492;54.856;26.318;2022-12-07T13:09:23;989.2;;;-3.2;100
45789;BME280;31492;54.856;26.318;2022-12-07T13:14:58;989.2;;;-3.2;100
45789;BME280;31492;54.856;26.318;2022-12-07T13:20:39;989.2;;;-3.2;100
45789;BME280;31492;54.856;26.318;2022-12-07T13:24:24;989.2;;;-3.2;100
45789;BME280;31492;54.856;26.318;2022-12-07T13:29:25;989.1;;;-3.3;100
45789;BME280;31492;54.856;26.318;2022-12-07T13:34:31;989.1;;;-3.3;100
45789;BME280;31492;54.856;26.318;2022-12-07T13:39:19;989.1;;;-3.3;100
45789;BME280;31492;54.856;26.318;2022-12-07T13:44:39;989.1;;;-3.3;100
45789;BME280;31492;54.856;26.318;2022-12-07T13:49:16;989;;;-3.3;100
45789;BME280;31492;54.856;26.318;2022-12-07T13:54:43;989;;;-3.3;100
45789;BME280;31492;54.856;26.318;2022-12-07T13:59:16;988.9;;;-3.3;100
45789;BME280;31492;54.856;26.318;2022-12-07T14:04:16;988.9;;;-3.3;100
45789;BME280;31492;54.856;26.318;2022-12-07T14:09:25;988.9;;;-3.3;100
45789;BME280;31492;54.856;26.318;2022-12-07T14:14:26;988.8;;;-3.3;100
45789;BME280;31492;54.856;26.318;2022-12-07T14:19:41;988.8;;;-3.3;100
45789;BME280;31492;54.856;26.318;2022-12-07T14:24:15;988.7;;;-3.3;100
45789;BME280;31492;54.856;26.318;2022-12-07T14:29:29;988.7;;;-3.3;100
45789;BME280;31492;54.856;26.318;2022-12-07T14:34:14;988.6;;;-3.3;100
45789;BME280;31492;54.856;26.318;2022-12-07T14:39:24;988.5;;;-3.3;100
45789;BME280;31492;54.856;26.318;2022-12-07T14:44:14;988.4;;;-3.2;100
45789;BME280;31492;54.856;26.318;2022-12-07T14:49:23;988.4;;;-3.2;100
45789;BME280;31492;54.856;26.318;2022-12-07T14:54:17;988.3;;;-3.3;100
45789;BME280;31492;54.856;26.318;2022-12-07T14:59:24;988.3;;;-3.2;100
45789;BME280;31492;54.856;26.318;2022-12-07T15:04:15;988.3;;;-3.2;100
45789;BME280;31492;54.856;26.318;2022-12-07T15:09:24;988.2;;;-3.2;100
45789;BME280;31492;54.856;26.318;2022-12-07T15:14:14;988.2;;;-3.1;100
45789;BME280;31492;54.856;26.318;2022-12-07T15:19:16;988.1;;;-3.2;100
45789;BME280;31492;54.856;26.318;2022-12-07T15:24:25;988.1;;;-3.2;100
45789;BME280;31492;54.856;26.318;2022-12-07T15:29:15;988.1;;;-3.2;100
45789;BME280;31492;54.856;26.318;2022-12-07T15:34:14;988;;;-3.1;100
45789;BME280;31492;54.856;26.318;2022-12-07T15:39:14;988;;;-3;100
45789;BME280;31492;54.856;26.318;2022-12-07T15:44:15;987.9;;;-3;100
45789;BME280;31492;54.856;26.318;2022-12-07T15:49:23;987.9;;;-3.1;100
45789;BME280;31492;54.856;26.318;2022-12-07T15:54:16;987.8;;;-3.1;100
45789;BME280;31492;54.856;26.318;2022-12-07T15:59:25;987.8;;;-3;100
45789;BME280;31492;54.856;26.318;2022-12-07T16:04:23;987.7;;;-3;100
45789;BME280;31492;54.856;26.318;2022-12-07T16:09:25;987.7;;;-2.9;100
45789;BME280;31492;54.856;26.318;2022-12-07T16:14:25;987.6;;;-3;100
45789;BME280;31492;54.856;26.318;2022-12-07T16:19:35;987.6;;;-3;100
45789;BME280;31492;54.856;26.318;2022-12-07T16:24:15;987.5;;;-3;100
45789;BME280;31492;54.856;26.318;2022-12-07T16:29:23;987.5;;;-2.9;100
45789;BME280;31492;54.856;26.318;2022-12-07T16:34:35;987.5;;;-2.9;100
45789;BME280;31492;54.856;26.318;2022-12-07T16:39:59;987.5;;;-2.9;100
45789;BME280;31492;54.856;26.318;2022-12-07T16:44:25;987.5;;;-2.8;100
45789;BME280;31492;54.856;26.318;2022-12-07T16:49:35;987.4;;;-2.8;100
45789;BME280;31492;54.856;26.318;2022-12-07T16:54:23;987.3;;;-2.8;100
45789;BME280;31492;54.856;26.318;2022-12-07T16:59:15;987.3;;;-2.7;100
45789;BME280;31492;54.856;26.318;2022-12-07T17:04:33;987.2;;;-2.7;100
45789;BME280;31492;54.856;26.318;2022-12-07T17:09:35;987.2;;;-2.7;100
45789;BME280;31492;54.856;26.318;2022-12-07T17:14:33;987.2;;;-2.7;100
45789;BME280;31492;54.856;26.318;2022-12-07T17:19:15;987.2;;;-2.6;100
45789;BME280;31492;54.856;26.318;2022-12-07T17:24:26;987.2;;;-2.6;100
45789;BME280;31492;54.856;26.318;2022-12-07T17:29:16;987.1;;;-2.5;100
45789;BME280;31492;54.856;26.318;2022-12-07T17:34:25;987.1;;;-2.5;100
45789;BME280;31492;54.856;26.318;2022-12-07T17:39:16;987.1;;;-2.4;100
45789;BME280;31492;54.856;26.318;2022-12-07T17:44:16;987.1;;;-2.4;100
45789;BME280;31492;54.856;26.318;2022-12-07T17:49:35;987.1;;;-2.3;100
45789;BME280;31492;54.856;26.318;2022-12-07T17:54:15;987;;;-2.4;100
45789;BME280;31492;54.856;26.318;2022-12-07T17:59:23;986.9;;;-2.3;100
45789;BME280;31492;54.856;26.318;2022-12-07T18:04:15;986.9;;;-2.2;100
45789;BME280;31492;54.856;26.318;2022-12-07T18:09:15;986.9;;;-2.2;100
45789;BME280;31492;54.856;26.318;2022-12-07T18:14:23;986.9;;;-2.1;100
45789;BME280;31492;54.856;26.318;2022-12-07T18:19:15;986.9;;;-2;100
45789;BME280;31492;54.856;26.318;2022-12-07T18:24:15;986.9;;;-2;100
45789;BME280;31492;54.856;26.318;2022-12-07T18:29:25;986.9;;;-1.9;100
45789;BME280;31492;54.856;26.318;2022-12-07T18:34:35;986.9;;;-1.9;100
45789;BME280;31492;54.856;26.318;2022-12-07T18:39:25;986.9;;;-1.8;100
45789;BME280;31492;54.856;26.318;2022-12-07T18:44:15;986.9;;;-1.7;100
45789;BME280;31492;54.856;26.318;2022-12-07T18:49:25;986.8;;;-1.7;100
45789;BME280;31492;54.856;26.318;2022-12-07T18:54:26;986.8;;;-1.7;100
45789;BME280;31492;54.856;26.318;2022-12-07T18:59:48;986.8;;;-1.6;100
45789;BME280;31492;54.856;26.318;2022-12-07T19:04:25;986.8;;;-1.6;100
45789;BME280;31492;54.856;26.318;2022-12-07T19:09:26;986.7;;;-1.5;100
45789;BME280;31492;54.856;26.318;2022-12-07T19:14:26;986.7;;;-1.5;100
45789;BME280;31492;54.856;26.318;2022-12-07T19:19:37;986.7;;;-1.4;100
45789;BME280;31492;54.856;26.318;2022-12-07T19:24:48;986.7;;;-1.4;100
45789;BME280;31492;54.856;26.318;2022-12-07T19:29:26;986.7;;;-1.3;100
45789;BME280;31492;54.856;26.318;2022-12-07T19:34:17;986.7;;;-1.3;100
45789;BME280;31492;54.856;26.318;2022-12-07T19:39:35;986.7;;;-1.3;100
45789;BME280;31492;54.856;26.318;2022-12-07T19:44:15;986.8;;;-1.2;100
45789;BME280;31492;54.856;26.318;2022-12-07T19:49:24;986.8;;;-1.2;100
45789;BME280;31492;54.856;26.318;2022-12-07T19:54:15;986.8;;;-1.2;100
45789;BME280;31492;54.856;26.318;2022-12-07T19:59:25;986.8;;;-1.1;100
45789;BME280;31492;54.856;26.318;2022-12-07T20:04:15;986.8;;;-1;100
45789;BME280;31492;54.856;26.318;2022-12-07T20:09:15;986.9;;;-1;100
45789;BME280;31492;54.856;26.318;2022-12-07T20:14:25;986.9;;;-0.9;100
45789;BME280;31492;54.856;26.318;2022-12-07T20:19:25;987;;;-0.9;100
45789;BME280;31492;54.856;26.318;2022-12-07T20:24:33;987;;;-0.8;100
45789;BME280;31492;54.856;26.318;2022-12-07T20:29:25;987;;;-0.7;100
45789;BME280;31492;54.856;26.318;2022-12-07T20:34:25;987.1;;;-0.7;100
45789;BME280;31492;54.856;26.318;2022-12-07T20:39:25;987.1;;;-0.7;100
45789;BME280;31492;54.856;26.318;2022-12-07T20:44:15;987.1;;;-0.6;100
45789;BME280;31492;54.856;26.318;2022-12-07T20:49:15;987.2;;;-0.6;100
45789;BME280;31492;54.856;26.318;2022-12-07T20:54:35;987.2;;;-0.6;100
45789;BME280;31492;54.856;26.318;2022-12-07T20:59:15;987.2;;;-0.5;100
45789;BME280;31492;54.856;26.318;2022-12-07T21:04:16;987.2;;;-0.4;100
45789;BME280;31492;54.856;26.318;2022-12-07T21:09:15;987.3;;;-0.4;100
45789;BME280;31492;54.856;26.318;2022-12-07T21:14:25;987.4;;;-0.4;100
45789;BME280;31492;54.856;26.318;2022-12-07T21:19:27;987.4;;;-0.3;100
45789;BME280;31492;54.856;26.318;2022-12-07T21:24:15;987.4;;;-0.3;100
45789;BME280;31492;54.856;26.318;2022-12-07T21:29:23;987.5;;;-0.3;100
45789;BME280;31492;54.856;26.318;2022-12-07T21:34:25;987.5;;;-0.3;100
45789;BME280;31492;54.856;26.318;2022-12-07T21:39:25;987.5;;;-0.3;100
